Portada
METAR-TAF:

METAR-TAF

Aeroports :

Gorgan, Iran

latitud: 36-49N, longitud: 054-28E, altitud: 155 m

Observació

L'informe es va fer fa 15 minuts, a les 09:00 UTC
Vent 6 kt del Nord/Nord-Oest
Temperatura 19°C
Humitat 43%
Pressió 1026 hPa
Visibilitat 10 km o més
sense núvols per sota de 1500 mi sense presència de cumulonimbus.

METAR: OING 120900Z 34006KT CAVOK 19/06 Q1026

Hora: 12:45 (09:15 UTC)


TAF: manca

Observacions i pronòstics meteorològics de més de 4000 aeroports (METAR i TAF).

Les estacions disponibles són els punts grocs i vermells al mapa.

Posi el ratolí al punt desitjat per veure el nom de l'estació.

Feu clic per veure les observacions i els pronòstics meteorològics.

Per canviar el mapa: feu clic els botons verds amb una creu de color negre per apropar; al botó verd amb un guió per allunyar la imatge; o en les fletxes verdes per a mapes adjacents.


METAR-TAF: